createdAt,value
2022-11-27T00:04:15.947Z,4.5
2022-11-27T00:10:05.315Z,4.6
2022-11-27T00:15:17.290Z,4.5
2022-11-27T00:20:15.818Z,4.5
2022-11-27T00:25:15.830Z,4.6
2022-11-27T00:31:05.705Z,4.6
2022-11-27T00:36:15.819Z,4.6
2022-11-27T00:41:15.887Z,4.6
2022-11-27T00:47:05.580Z,4.6
2022-11-27T00:52:15.828Z,4.5
2022-11-27T00:57:15.811Z,4.6
2022-11-27T01:02:15.879Z,4.8
2022-11-27T01:07:15.889Z,4.9
2022-11-27T01:13:05.549Z,4.6
2022-11-27T01:18:15.847Z,4.7
2022-11-27T01:24:05.516Z,4.6
2022-11-27T01:29:05.528Z,4.5
2022-11-27T01:34:05.519Z,4.6
2022-11-27T01:39:15.828Z,4.6
2022-11-27T01:45:05.437Z,4.4
2022-11-27T01:50:15.594Z,4.5
2022-11-27T01:55:15.669Z,4.5
2022-11-27T02:01:05.344Z,4.4
2022-11-27T02:06:05.350Z,4.5
2022-11-27T02:11:15.600Z,4.3
2022-11-27T02:17:05.289Z,4.3
2022-11-27T02:22:05.335Z,4.2
2022-11-27T02:27:15.660Z,4.2
2022-11-27T02:33:05.303Z,4.3
2022-11-27T02:38:05.318Z,4.2
2022-11-27T02:43:15.746Z,4.2
2022-11-27T02:49:05.334Z,4.3
2022-11-27T02:54:15.594Z,4.2
2022-11-27T02:59:15.736Z,4.4
2022-11-27T03:04:15.668Z,4.3
2022-11-27T03:09:15.800Z,4.3
2022-11-27T03:15:05.431Z,4.4
2022-11-27T03:20:05.516Z,4.3
2022-11-27T03:25:15.565Z,4
2022-11-27T03:30:15.788Z,4
2022-11-27T03:35:15.988Z,3.9
2022-11-27T03:41:05.473Z,4
2022-11-27T03:46:05.669Z,3.9
2022-11-27T03:51:15.590Z,3.9
2022-11-27T03:56:15.798Z,4
2022-11-27T04:02:05.715Z,3.9
2022-11-27T04:07:15.757Z,4.1
2022-11-27T04:12:15.853Z,4.3
2022-11-27T04:18:05.392Z,4.2
2022-11-27T04:23:05.509Z,4.2
2022-11-27T04:28:15.943Z,4.3
2022-11-27T04:34:05.597Z,4.4
2022-11-27T04:39:15.761Z,4.3
2022-11-27T04:45:05.307Z,4.3
2022-11-27T04:50:15.704Z,4.3
2022-11-27T04:55:15.755Z,4.4
2022-11-27T05:01:05.629Z,4.3
2022-11-27T05:06:15.908Z,4.4
2022-11-27T05:12:05.242Z,4.5
2022-11-27T05:17:05.474Z,4.4
2022-11-27T05:22:15.888Z,4.5
2022-11-27T05:28:06.073Z,4.5
2022-11-27T05:33:15.744Z,4.7
2022-11-27T05:38:15.907Z,4.6
2022-11-27T05:44:05.447Z,4.7
2022-11-27T05:49:05.466Z,4.7
2022-11-27T05:54:05.608Z,4.7
2022-11-27T05:59:15.765Z,4.9
2022-11-27T06:05:05.478Z,5
2022-11-27T06:10:21.638Z,5
2022-11-27T06:16:05.635Z,5
2022-11-27T06:21:05.488Z,5
2022-11-27T06:26:05.500Z,5
2022-11-27T06:31:18.122Z,5
2022-11-27T06:36:15.753Z,5.2
2022-11-27T06:42:05.215Z,5.2
2022-11-27T06:47:05.564Z,5.4
2022-11-27T06:52:05.457Z,5.4
2022-11-27T06:57:15.755Z,5.6
2022-11-27T07:02:15.929Z,5.7
2022-11-27T07:08:05.485Z,5.6
2022-11-27T07:13:15.734Z,5.7
2022-11-27T07:18:15.913Z,5.8
2022-11-27T07:24:05.352Z,5.8
2022-11-27T07:29:05.428Z,5.8
2022-11-27T07:34:08.388Z,5.9
2022-11-27T07:39:17.541Z,6.1
2022-11-27T07:44:15.688Z,6
2022-11-27T07:49:16.748Z,6
2022-11-27T07:55:05.233Z,6.3
2022-11-27T08:00:05.233Z,6.1
2022-11-27T08:05:10.969Z,6.4
2022-11-27T08:10:15.534Z,6.3
2022-11-27T08:16:05.276Z,6.5
2022-11-27T08:21:15.641Z,6.5
2022-11-27T08:26:15.549Z,6.6
2022-11-27T08:32:05.398Z,6.7
2022-11-27T08:37:15.628Z,6.8
2022-11-27T08:43:05.231Z,7
2022-11-27T08:48:05.515Z,7
2022-11-27T08:53:15.644Z,7.2
2022-11-27T08:58:15.537Z,7
2022-11-27T09:04:05.385Z,7.2
2022-11-27T09:09:15.604Z,7
2022-11-27T09:14:15.575Z,7.2
2022-11-27T09:19:15.693Z,7.2
2022-11-27T09:25:05.382Z,7.5
2022-11-27T09:30:05.517Z,7.7
2022-11-27T09:35:15.836Z,8.1
2022-11-27T09:41:05.553Z,8.1
2022-11-27T09:46:15.774Z,8
2022-11-27T09:52:05.395Z,8
2022-11-27T09:57:05.521Z,8.3
2022-11-27T10:02:05.550Z,8.1
2022-11-27T10:07:05.426Z,8.1
2022-11-27T10:12:05.926Z,8
2022-11-27T10:17:15.637Z,8.2
2022-11-27T10:23:05.555Z,8.4
2022-11-27T10:28:16.297Z,8.4
2022-11-27T10:34:11.093Z,8.6
2022-11-27T10:39:05.554Z,8.5
2022-11-27T10:44:15.485Z,8.5
2022-11-27T10:49:23.939Z,8.6
2022-11-27T10:55:05.528Z,8.4
2022-11-27T11:00:05.405Z,8.6
2022-11-27T11:05:32.385Z,8.7
2022-11-27T11:10:05.559Z,8.5
2022-11-27T11:15:15.802Z,8.5
2022-11-27T11:20:15.703Z,8.5
2022-11-27T11:26:05.409Z,8.6
2022-11-27T11:31:05.567Z,8.5
2022-11-27T11:36:15.739Z,8.7
2022-11-27T11:42:05.473Z,8.9
2022-11-27T11:47:15.821Z,9
2022-11-27T11:53:05.418Z,9
2022-11-27T11:58:05.395Z,8.9
2022-11-27T12:03:15.834Z,8.9
2022-11-27T12:08:15.712Z,9
2022-11-27T12:14:05.450Z,9.3
2022-11-27T12:19:15.948Z,9.1
2022-11-27T12:25:05.376Z,9
2022-11-27T12:30:05.410Z,9
2022-11-27T12:35:15.822Z,8.9
2022-11-27T12:41:05.443Z,9
2022-11-27T12:46:15.576Z,9.1
2022-11-27T12:51:15.810Z,9.3
2022-11-27T12:57:05.431Z,9.1
2022-11-27T13:02:15.733Z,9.1
2022-11-27T13:07:15.947Z,8.8
2022-11-27T13:13:05.390Z,9
2022-11-27T13:18:05.441Z,9
2022-11-27T13:23:15.691Z,8.7
2022-11-27T13:28:24.930Z,9
2022-11-27T13:34:05.160Z,9
2022-11-27T13:39:05.317Z,9
2022-11-27T13:44:15.430Z,8.9
2022-11-27T13:49:15.684Z,8.9
2022-11-27T13:54:15.893Z,8.9
2022-11-27T14:00:05.500Z,9.1
2022-11-27T14:05:15.548Z,8.8
2022-11-27T14:10:15.865Z,9
2022-11-27T14:16:05.273Z,8.8
2022-11-27T14:21:05.276Z,8.8
2022-11-27T14:26:15.925Z,8.8
2022-11-27T14:31:15.575Z,8.7
2022-11-27T14:37:05.135Z,8.7
2022-11-27T14:42:15.622Z,8.8
2022-11-27T14:48:05.218Z,8.8
2022-11-27T14:53:15.492Z,8.8
2022-11-27T14:58:15.642Z,8.6
2022-11-27T15:04:05.160Z,8.6
2022-11-27T15:09:30.887Z,8.5
2022-11-27T15:14:15.720Z,8.4
2022-11-27T15:20:05.252Z,8.5
2022-11-27T15:25:05.374Z,8.4
2022-11-27T15:30:15.752Z,8.3
2022-11-27T15:35:15.646Z,8.3
2022-11-27T15:40:15.673Z,8.5
2022-11-27T15:46:05.523Z,8.4
2022-11-27T15:51:05.415Z,8.3
2022-11-27T15:56:05.422Z,8.1
2022-11-27T16:01:15.877Z,8.2
2022-11-27T16:07:05.400Z,8.1
2022-11-27T16:12:15.438Z,8
2022-11-27T16:17:15.812Z,8
2022-11-27T16:23:05.192Z,8.2
2022-11-27T16:28:05.386Z,7.9
2022-11-27T16:33:21.329Z,8.1
2022-11-27T16:38:15.565Z,8
2022-11-27T16:43:15.681Z,7.8
2022-11-27T16:49:05.355Z,7.8
2022-11-27T16:54:15.784Z,7.7
2022-11-27T17:00:12.997Z,7.7
2022-11-27T17:05:15.640Z,7.7
2022-11-27T17:11:08.533Z,7.6
2022-11-27T17:16:15.728Z,7.5
2022-11-27T17:21:15.687Z,7.3
2022-11-27T17:27:05.536Z,7.5
2022-11-27T17:32:15.445Z,7.5
2022-11-27T17:37:15.688Z,7.6
2022-11-27T17:43:05.499Z,7.5
2022-11-27T17:48:05.495Z,7.6
2022-11-27T17:53:15.648Z,7.3
2022-11-27T17:59:05.485Z,7.2
2022-11-27T18:04:05.550Z,7.3
2022-11-27T18:09:15.637Z,7.2
2022-11-27T18:14:15.789Z,7.3
2022-11-27T18:20:05.187Z,7.2
2022-11-27T18:25:05.376Z,7.3
2022-11-27T18:30:15.763Z,7.2
2022-11-27T18:35:15.661Z,7.2
2022-11-27T18:41:05.366Z,7.2
2022-11-27T18:46:05.620Z,7.3
2022-11-27T18:51:15.640Z,7.2
2022-11-27T18:57:05.350Z,7.2
2022-11-27T19:02:05.760Z,7.2
2022-11-27T19:07:05.359Z,7
2022-11-27T19:12:15.658Z,7
2022-11-27T19:18:05.487Z,7
2022-11-27T19:23:15.647Z,7
2022-11-27T19:28:15.665Z,6.9
2022-11-27T19:34:05.466Z,7.2
2022-11-27T19:39:05.379Z,7.2
2022-11-27T19:44:15.373Z,7.3
2022-11-27T19:49:15.622Z,7.2
2022-11-27T19:54:15.779Z,7.1
2022-11-27T20:00:05.334Z,7.1
2022-11-27T20:05:15.820Z,7
2022-11-27T20:10:15.650Z,7.1
2022-11-27T20:16:05.410Z,7.1
2022-11-27T20:21:15.793Z,7.1
2022-11-27T20:26:15.690Z,7
2022-11-27T20:32:05.189Z,7.2
2022-11-27T20:37:05.266Z,7.3
2022-11-27T20:42:05.159Z,7.3
2022-11-27T20:47:15.434Z,7.2
2022-11-27T20:52:15.593Z,7.4
2022-11-27T20:58:05.499Z,7.3
2022-11-27T21:03:15.782Z,7.2
2022-11-27T21:09:05.204Z,7.3
2022-11-27T21:14:05.164Z,7.2
2022-11-27T21:19:05.174Z,7.5
2022-11-27T21:24:15.547Z,7.5
2022-11-27T21:29:15.528Z,7.3
2022-11-27T21:35:05.341Z,7.6
2022-11-27T21:40:05.468Z,7.5
2022-11-27T21:45:15.634Z,7.6
2022-11-27T21:51:05.359Z,7.8
2022-11-27T21:56:15.698Z,7.7
2022-11-27T22:01:15.639Z,8
2022-11-27T22:06:15.595Z,7.8
2022-11-27T22:12:05.223Z,7.6
2022-11-27T22:17:05.371Z,7.2
2022-11-27T22:22:05.367Z,7.2
2022-11-27T22:27:05.413Z,7.1
2022-11-27T22:32:15.726Z,6.9
2022-11-27T22:38:05.148Z,7
2022-11-27T22:43:15.417Z,7
2022-11-27T22:48:15.738Z,7
2022-11-27T22:54:05.145Z,7
2022-11-27T22:59:31.148Z,7
2022-11-27T23:04:15.528Z,6.9
2022-11-27T23:09:15.611Z,7.1
2022-11-27T23:14:15.613Z,7.1
2022-11-27T23:20:05.446Z,7.1
2022-11-27T23:25:05.370Z,7.1
2022-11-27T23:30:15.439Z,7.3
2022-11-27T23:35:15.707Z,7.5
2022-11-27T23:40:15.618Z,7.5
2022-11-27T23:46:05.385Z,7.6
2022-11-27T23:51:15.579Z,7.5
2022-11-27T23:56:15.731Z,7.5
